.
WxDataArchive / Data Records for 2010-01-17
2010-01-16 January 2010 2010-01-18

Data Records for Sunday, 17 January 2010

Time	Temp	Chill	HIndex	Humid	Dewpt	 Wind 	HiWind	WindDir	Rain 	Barom 
-----	----	-----	------	-----	-----	------	------	-------	-----	----- 
00:00	31.5	31.5	31.5	95	30.2	0	0	---	0.00	30.057 
00:05	31.5	31.5	31.5	95	30.2	0	0	---	0.00	30.057 
00:10	31.5	31.5	31.5	95	30.2	0	0	---	0.00	30.057 
00:15	31.5	31.5	31.5	95	30.2	0	0	---	0.00	30.043 
00:20	31.5	31.5	31.5	95	30.2	0	0	---	0.00	30.043 
00:25	31.5	31.5	31.5	95	30.2	0	0	---	0.00	30.043 
00:30	31.5	31.5	31.5	95	30.2	0	0	---	0.00	30.040 
00:35	31.6	31.6	31.6	95	30.3	0	0	---	0.00	30.040 
00:40	31.6	31.6	31.6	95	30.3	0	0	---	0.00	30.040 
00:45	31.6	31.6	31.6	95	30.3	0	0	---	0.00	30.034 
00:50	31.6	31.6	31.6	95	30.3	0	0	---	0.00	30.034 
00:55	31.6	31.6	31.6	95	30.3	0	0	---	0.00	30.034 
01:00	31.6	31.6	31.6	95	30.3	0	0	---	0.00	30.032 
01:05	31.8	31.8	31.8	95	30.5	0	0	---	0.00	30.032 
01:10	31.8	31.8	31.8	95	30.5	0	1	112	0.00	30.032 
01:15	31.8	31.8	31.8	95	30.5	0	1	112	0.00	30.028 
01:20	31.9	31.9	31.9	96	30.9	0	0	---	0.00	30.028 
01:25	31.9	31.9	31.9	95	30.6	0	1	112	0.00	30.028 
01:30	31.9	31.9	31.9	96	30.9	0	1	112	0.00	30.021 
01:35	31.9	31.9	31.9	96	30.9	0	0	---	0.00	30.021 
01:40	31.9	31.9	31.9	96	30.9	0	0	---	0.00	30.021 
01:45	31.9	31.9	31.9	96	30.9	0	0	---	0.00	30.007 
01:50	31.9	31.9	31.9	96	30.9	0	0	---	0.00	30.007 
01:55	31.9	31.9	31.9	96	30.9	0	0	---	0.00	30.007 
02:00	31.9	31.9	31.9	96	30.9	0	0	---	0.00	29.994 
02:05	31.9	31.9	31.9	96	30.9	0	0	---	0.00	29.994 
02:10	31.9	31.9	31.9	96	30.9	0	0	---	0.00	29.994 
02:15	31.9	31.9	31.9	96	30.9	0	0	---	0.00	29.987 
02:20	31.9	31.9	31.9	96	30.9	0	1	112	0.00	29.987 
02:25	31.9	31.9	31.9	96	30.9	0	1	112	0.00	29.987 
02:30	31.8	31.8	31.8	96	30.8	0	0	---	0.00	29.978 
02:35	31.8	31.8	31.8	96	30.8	0	0	---	0.00	29.978 
02:40	31.8	31.8	31.8	96	30.8	0	0	---	0.00	29.978 
02:45	31.8	31.8	31.8	96	30.8	0	0	---	0.00	29.975 
02:50	31.8	31.8	31.8	96	30.8	0	2	112	0.00	29.975 
02:55	31.6	31.6	31.6	96	30.6	0	1	112	0.00	29.975 
03:00	31.6	31.6	31.6	96	30.6	0	0	---	0.00	29.974 
03:05	31.6	31.6	31.6	96	30.6	0	0	---	0.00	29.974 
03:10	31.6	31.6	31.6	96	30.6	0	1	112	0.00	29.974 
03:15	31.6	31.6	31.6	96	30.6	0	0	---	0.00	29.966 
03:20	31.5	31.5	31.5	96	30.5	0	0	---	0.00	29.966 
03:25	31.5	31.5	31.5	96	30.5	0	0	---	0.00	29.966 
03:30	31.5	31.5	31.5	96	30.5	0	0	---	0.00	29.958 
03:35	31.5	31.5	31.5	96	30.5	0	0	---	0.00	29.958 
03:40	31.5	31.5	31.5	96	30.5	0	1	112	0.00	29.958 
03:45	31.3	31.3	31.3	96	30.3	0	1	112	0.00	29.953 
03:50	31.3	31.3	31.3	96	30.3	0	1	112	0.00	29.953 
03:55	31.3	31.3	31.3	96	30.3	0	1	112	0.00	29.953 
04:00	31.3	31.3	31.3	96	30.3	0	0	---	0.00	29.946 
04:05	31.3	31.3	31.3	96	30.3	0	2	112	0.00	29.946 
04:10	31.3	31.3	31.3	96	30.3	0	0	---	0.00	29.946 
04:15	31.2	31.2	31.2	96	30.2	0	0	---	0.00	29.943 
04:20	31.2	31.2	31.2	96	30.2	0	1	112	0.00	29.943 
04:25	31.2	31.2	31.2	96	30.2	0	2	112	0.00	29.943 
04:30	31.0	31.0	31.0	96	30.0	0	3	112	0.00	29.937 
04:35	31.0	31.0	31.0	96	30.0	1	4	112	0.00	29.937 
04:40	31.0	31.0	31.0	96	30.0	1	3	112	0.00	29.937 
04:45	30.9	30.9	30.9	96	29.9	0	1	112	0.00	29.932 
04:50	30.9	30.9	30.9	96	29.9	0	0	---	0.00	29.932 
04:55	30.9	30.9	30.9	96	29.9	0	2	112	0.00	29.932 
05:00	30.9	30.9	30.9	96	29.9	0	2	112	0.00	29.930 
05:05	30.9	30.9	30.9	96	29.9	0	2	112	0.00	29.930 
05:10	30.9	30.9	30.9	96	29.9	0	1	112	0.00	29.930 
05:15	30.9	30.9	30.9	96	29.9	0	2	112	0.00	29.930 
05:20	30.9	30.9	30.9	96	29.9	1	2	112	0.00	29.930 
05:25	30.9	30.9	30.9	96	29.9	1	3	112	0.00	29.930 
05:30	30.7	30.7	30.7	96	29.7	1	3	112	0.00	29.930 
05:35	30.7	30.7	30.7	96	29.7	1	4	112	0.00	29.930 
05:40	30.6	30.6	30.6	96	29.6	0	2	112	0.00	29.930 
05:45	30.6	30.6	30.6	96	29.6	2	3	112	0.00	29.932 
05:50	30.6	30.6	30.6	96	29.6	0	2	112	0.00	29.932 
05:55	30.4	30.4	30.4	96	29.4	0	3	112	0.00	29.932 
06:00	30.4	30.4	30.4	96	29.4	1	3	112	0.00	29.930 
06:05	30.4	30.4	30.4	96	29.4	1	3	112	0.00	29.930 
06:10	30.4	30.4	30.4	96	29.4	0	2	112	0.00	29.930 
06:15	30.3	30.3	30.3	96	29.3	0	1	112	0.00	29.929 
06:20	30.3	30.3	30.3	96	29.3	0	1	112	0.00	29.929 
06:25	30.3	30.3	30.3	96	29.3	0	2	112	0.00	29.929 
06:30	30.3	30.3	30.3	96	29.3	1	2	112	0.00	29.920 
06:35	30.3	30.3	30.3	96	29.3	1	3	112	0.00	29.920 
06:40	30.3	30.3	30.3	96	29.3	1	2	112	0.00	29.920 
06:45	30.3	30.3	30.3	96	29.3	1	3	112	0.00	29.916 
06:50	30.3	30.3	30.3	96	29.3	1	4	112	0.00	29.916 
06:55	30.3	30.3	30.3	96	29.3	1	5	112	0.00	29.916 
07:00	30.3	30.3	30.3	96	29.3	1	4	112	0.00	29.911 
07:05	30.3	30.3	30.3	96	29.3	1	4	112	0.00	29.911 
07:10	30.1	30.1	30.1	96	29.1	1	3	112	0.00	29.911 
07:15	30.1	30.1	30.1	96	29.1	1	3	112	0.00	29.908 
07:20	30.1	30.1	30.1	96	29.1	1	3	112	0.00	29.908 
07:25	30.1	30.1	30.1	96	29.1	0	2	112	0.00	29.908 
07:30	30.1	30.1	30.1	96	29.1	0	2	112	0.00	29.901 
07:35	30.1	30.1	30.1	96	29.1	1	3	112	0.00	29.901 
07:40	30.1	30.1	30.1	96	29.1	1	3	112	0.00	29.901 
07:45	30.1	30.1	30.1	96	29.1	1	3	112	0.00	29.900 
07:50	30.1	30.1	30.1	96	29.1	1	3	112	0.00	29.900 
07:55	30.1	30.1	30.1	96	29.1	2	4	112	0.00	29.900 
08:00	30.1	30.1	30.1	96	29.1	1	3	112	0.00	29.900 
08:05	30.1	30.1	30.1	96	29.1	0	2	112	0.00	29.900 
08:10	30.1	30.1	30.1	96	29.1	1	3	112	0.00	29.900 
08:15	30.1	30.1	30.1	96	29.1	0	1	112	0.00	29.886 
08:20	30.1	30.1	30.1	96	29.1	0	1	112	0.00	29.886 
08:25	30.3	30.3	30.3	96	29.3	0	1	112	0.00	29.886 
08:30	30.3	30.3	30.3	96	29.3	0	0	---	0.00	29.882 
08:35	30.3	30.3	30.3	96	29.3	0	1	112	0.00	29.882 
08:40	30.3	30.3	30.3	96	29.3	0	1	112	0.00	29.882 
08:45	30.3	30.3	30.3	96	29.3	0	1	112	0.00	29.881 
08:50	30.3	30.3	30.3	96	29.3	0	1	112	0.00	29.881 
08:55	30.3	30.3	30.3	96	29.3	0	1	112	0.00	29.881 
09:00	30.1	30.1	30.1	96	29.1	0	2	112	0.00	29.884 
09:05	30.1	30.1	30.1	96	29.1	0	2	112	0.00	29.884 
09:10	30.1	30.1	30.1	96	29.1	0	2	112	0.00	29.884 
09:15	30.1	30.1	30.1	96	29.1	0	1	112	0.00	29.884 
09:20	30.1	30.1	30.1	96	29.1	0	1	112	0.00	29.884 
09:25	30.1	30.1	30.1	96	29.1	0	1	112	0.00	29.884 
09:30	30.1	30.1	30.1	96	29.1	0	2	112	0.00	29.886 
09:35	30.1	30.1	30.1	96	29.1	0	1	112	0.00	29.886 
09:40	30.1	30.1	30.1	96	29.1	0	1	112	0.00	29.886 
09:45	30.3	30.3	30.3	96	29.3	0	1	112	0.00	29.890 
09:50	30.3	30.3	30.3	96	29.3	0	1	112	0.00	29.890 
09:55	30.3	30.3	30.3	96	29.3	0	2	112	0.00	29.890 
10:00	30.3	30.3	30.3	96	29.3	0	1	112	0.00	29.898 
10:05	30.4	30.4	30.4	96	29.4	0	0	---	0.00	29.898 
10:10	30.4	30.4	30.4	96	29.4	0	0	---	0.00	29.898 
10:15	30.6	30.6	30.6	96	29.6	0	0	---	0.00	29.885 
10:20	30.6	30.6	30.6	96	29.6	0	0	---	0.00	29.885 
10:25	30.6	30.6	30.6	96	29.6	0	1	112	0.00	29.885 
10:30	30.6	30.6	30.6	96	29.6	0	3	112	0.00	29.883 
10:35	30.6	30.6	30.6	96	29.6	0	1	112	0.00	29.883 
10:40	30.6	30.6	30.6	96	29.6	0	1	112	0.00	29.883 
10:45	30.7	30.7	30.7	96	29.7	0	2	112	0.00	29.879 
10:50	30.7	30.7	30.7	96	29.7	0	2	112	0.00	29.879 
10:55	30.7	30.7	30.7	96	29.7	0	0	---	0.00	29.879 
11:00	30.7	30.7	30.7	96	29.7	0	0	---	0.00	29.876 
11:05	30.7	30.7	30.7	96	29.7	1	3	112	0.00	29.876 
11:10	30.6	30.6	30.6	96	29.6	0	2	112	0.00	29.876 
11:15	30.6	30.6	30.6	96	29.6	0	1	112	0.00	29.872 
11:20	30.4	30.4	30.4	96	29.4	0	2	112	0.00	29.872 
11:25	30.6	30.6	30.6	96	29.6	0	1	112	0.00	29.872 
11:30	30.6	30.6	30.6	96	29.6	0	2	112	0.00	29.865 
11:35	30.7	30.7	30.7	96	29.7	0	2	112	0.00	29.865 
11:40	31.0	31.0	31.0	96	30.0	0	2	112	0.00	29.865 
11:45	31.0	31.0	31.0	96	30.0	0	1	112	0.00	29.864 
11:50	31.0	31.0	31.0	96	30.0	0	2	112	0.00	29.864 
11:55	31.0	31.0	31.0	96	30.0	0	1	112	0.00	29.864 
12:00	31.0	31.0	31.0	96	30.0	0	1	112	0.00	29.856 
12:05	31.0	31.0	31.0	96	30.0	0	1	112	0.00	29.856 
12:10	31.0	31.0	31.0	96	30.0	0	3	112	0.00	29.856 
12:15	31.0	31.0	31.0	96	30.0	0	1	112	0.00	29.849 
12:20	31.0	31.0	31.0	96	30.0	1	2	112	0.00	29.849 
12:25	30.9	30.9	30.9	96	29.9	0	2	112	0.00	29.849 
12:30	31.0	31.0	31.0	96	30.0	0	1	112	0.00	29.836 
12:35	31.0	31.0	31.0	96	30.0	0	2	112	0.00	29.836 
12:40	31.2	31.2	31.2	96	30.2	0	2	112	0.00	29.836 
12:45	31.2	31.2	31.2	96	30.2	0	1	112	0.00	29.829 
12:50	31.2	31.2	31.2	96	30.2	0	0	---	0.00	29.829 
12:55	31.3	31.3	31.3	96	30.3	0	1	112	0.00	29.829 
13:00	31.5	31.5	31.5	96	30.5	0	0	---	0.00	29.818 
13:05	31.3	31.3	31.3	96	30.3	0	2	112	0.00	29.818 
13:10	31.3	31.3	31.3	96	30.3	0	2	112	0.00	29.818 
13:15	31.5	31.5	31.5	96	30.5	0	1	112	0.00	29.803 
13:20	31.5	31.5	31.5	96	30.5	0	1	112	0.00	29.803 
13:25	31.3	31.3	31.3	96	30.3	0	3	112	0.00	29.803 
13:30	31.5	31.5	31.5	96	30.5	0	1	112	0.00	29.800 
13:35	31.5	31.5	31.5	96	30.5	0	1	112	0.00	29.800 
13:40	31.5	31.5	31.5	96	30.5	0	1	112	0.00	29.800 
13:45	31.6	31.6	31.6	96	30.6	0	2	112	0.00	29.787 
13:50	31.6	31.6	31.6	96	30.6	0	1	112	0.00	29.787 
13:55	31.8	31.8	31.8	96	30.8	0	3	112	0.00	29.787 
14:00	31.6	31.6	31.6	96	30.6	1	2	112	0.00	29.777 
14:05	31.6	31.6	31.6	96	30.6	0	2	112	0.00	29.777 
14:10	31.8	31.8	31.8	96	30.8	0	1	112	0.00	29.777 
14:15	31.8	31.8	31.8	96	30.8	0	1	112	0.00	29.772 
14:20	31.8	31.8	31.8	96	30.8	0	1	112	0.00	29.772 
14:25	31.8	31.8	31.8	96	30.8	0	1	112	0.00	29.772 
14:30	31.8	31.8	31.8	96	30.8	0	1	112	0.00	29.769 
14:35	31.9	31.9	31.9	96	30.9	0	1	112	0.00	29.769 
14:40	31.9	31.9	31.9	96	30.9	0	1	112	0.00	29.769 
14:45	31.8	31.8	31.8	96	30.8	0	3	112	0.00	29.771 
14:50	31.8	31.8	31.8	96	30.8	0	1	292	0.00	29.771 
14:55	31.8	31.8	31.8	96	30.8	0	2	292	0.00	29.771 
15:00	31.6	31.6	31.6	96	30.6	0	2	338	0.00	29.770 
15:05	31.8	31.8	31.8	96	30.8	0	1	338	0.00	29.770 
15:10	31.8	31.8	31.8	96	30.8	0	1	338	0.00	29.770 
15:15	31.8	31.8	31.8	96	30.8	0	2	338	0.00	29.772 
15:20	31.9	31.9	31.9	96	30.9	0	0	---	0.00	29.772 
15:25	32.1	32.1	32.1	96	31.1	0	1	338	0.00	29.772 
15:30	32.2	32.2	32.2	96	31.2	0	0	---	0.00	29.772 
15:35	32.2	32.2	32.2	96	31.2	0	0	---	0.00	29.772 
15:40	32.2	32.2	32.2	96	31.2	0	1	338	0.00	29.772 
15:45	32.4	32.4	32.4	96	31.4	0	0	---	0.00	29.781 
15:50	32.4	32.4	32.4	96	31.4	0	0	---	0.00	29.781 
15:55	32.4	32.4	32.4	96	31.4	0	1	338	0.00	29.781 
16:00	32.4	32.4	32.4	96	31.4	0	0	---	0.00	29.785 
16:05	32.4	32.4	32.4	96	31.4	0	0	---	0.00	29.785 
16:10	32.4	32.4	32.4	96	31.4	0	1	338	0.00	29.785 
16:15	32.2	32.2	32.2	96	31.2	0	0	---	0.00	29.792 
16:20	32.2	32.2	32.2	95	30.9	0	1	338	0.00	29.792 
16:25	32.2	32.2	32.2	95	30.9	0	2	338	0.00	29.792 
16:30	32.2	32.2	32.2	95	30.9	0	2	338	0.00	29.804 
16:35	32.2	32.2	32.2	95	30.9	0	2	338	0.00	29.804 
16:40	32.1	32.1	32.1	95	30.8	0	2	270	0.00	29.804 
16:45	31.9	31.9	31.9	95	30.6	0	1	270	0.00	29.805 
16:50	31.9	31.9	31.9	94	30.4	0	1	270	0.00	29.805 
16:55	31.9	31.9	31.9	94	30.4	0	0	---	0.00	29.805 
17:00	31.9	31.9	31.9	94	30.4	0	0	---	0.00	29.804 
17:05	32.1	32.1	32.1	94	30.6	0	0	---	0.00	29.804 
17:10	31.9	31.9	31.9	94	30.4	0	1	270	0.00	29.804 
17:15	31.8	31.8	31.8	93	30.0	0	1	270	0.00	29.806 
17:20	31.8	31.8	31.8	93	30.0	0	0	---	0.00	29.806 
17:25	31.6	31.6	31.6	93	29.8	0	1	270	0.00	29.806 
17:30	31.6	31.6	31.6	93	29.8	0	0	---	0.00	29.817 
17:35	31.5	31.5	31.5	93	29.7	0	0	---	0.00	29.817 
17:40	31.5	31.5	31.5	93	29.7	0	1	270	0.00	29.817 
17:45	31.3	31.3	31.3	92	29.3	0	0	---	0.00	29.819 
17:50	31.2	31.2	31.2	92	29.2	0	0	---	0.00	29.819 
17:55	31.2	31.2	31.2	92	29.2	0	0	---	0.00	29.819 
18:00	31.0	31.0	31.0	92	29.0	0	0	---	0.00	29.831 
18:05	30.9	30.9	30.9	92	28.9	0	1	270	0.00	29.831 
18:10	30.7	30.7	30.7	92	28.7	0	0	---	0.00	29.831 
18:15	30.7	30.7	30.7	92	28.7	0	1	270	0.00	29.837 
18:20	30.6	30.6	30.6	92	28.6	0	0	---	0.00	29.837 
18:25	30.4	30.4	30.4	92	28.4	0	2	270	0.00	29.837 
18:30	30.3	30.3	30.3	92	28.3	0	1	270	0.00	29.840 
18:35	30.1	30.1	30.1	92	28.1	0	0	---	0.00	29.840 
18:40	30.0	30.0	30.0	92	28.0	0	2	270	0.00	29.840 
18:45	29.8	29.8	29.8	92	27.8	0	1	270	0.00	29.847 
18:50	29.7	29.7	29.7	92	27.7	0	1	270	0.00	29.847 
18:55	29.5	29.5	29.5	92	27.5	0	1	270	0.00	29.847 
19:00	29.4	29.4	29.4	92	27.4	0	2	270	0.00	29.855 
19:05	29.3	29.3	29.3	92	27.3	0	1	270	0.00	29.855 
19:10	29.1	29.1	29.1	91	26.8	0	1	270	0.00	29.855 
19:15	29.0	29.0	29.0	91	26.7	0	1	270	0.00	29.856 
19:20	28.8	28.8	28.8	91	26.5	0	0	---	0.00	29.856 
19:25	28.7	28.7	28.7	91	26.4	0	0	---	0.00	29.856 
19:30	28.5	28.5	28.5	91	26.2	0	0	---	0.00	29.861 
19:35	28.4	28.4	28.4	91	26.1	0	0	---	0.00	29.861 
19:40	28.1	28.1	28.1	91	25.8	0	0	---	0.00	29.861 
19:45	27.9	27.9	27.9	91	25.6	0	0	---	0.00	29.860 
19:50	27.8	27.8	27.8	91	25.5	0	0	---	0.00	29.860 
19:55	27.5	27.5	27.5	91	25.2	0	0	---	0.00	29.860 
20:00	27.3	27.3	27.3	91	25.0	0	0	---	0.00	29.864 
20:05	27.3	27.3	27.3	91	25.0	0	0	---	0.00	29.864 
20:10	27.2	27.2	27.2	91	24.9	0	1	270	0.00	29.864 
20:15	27.0	27.0	27.0	91	24.7	0	1	270	0.00	29.872 
20:20	27.0	27.0	27.0	91	24.7	0	1	270	0.00	29.872 
20:25	27.0	27.0	27.0	91	24.7	0	2	270	0.00	29.872 
20:30	27.0	27.0	27.0	91	24.7	0	1	270	0.00	29.872 
20:35	27.0	27.0	27.0	92	25.0	0	1	270	0.00	29.872 
20:40	27.0	27.0	27.0	92	25.0	0	2	270	0.00	29.872 
20:45	27.0	27.0	27.0	92	25.0	1	3	270	0.00	29.875 
20:50	27.0	27.0	27.0	92	25.0	1	3	270	0.00	29.875 
20:55	27.0	27.0	27.0	92	25.0	1	4	248	0.00	29.875 
21:00	27.0	27.0	27.0	92	25.0	0	2	248	0.00	29.873 
21:05	27.2	27.2	27.2	92	25.2	0	2	248	0.00	29.873 
21:10	27.2	27.2	27.2	92	25.2	0	2	248	0.00	29.873 
21:15	27.3	27.3	27.3	92	25.3	0	2	248	0.00	29.873 
21:20	27.5	27.5	27.5	92	25.5	1	2	248	0.00	29.873 
21:25	27.5	27.5	27.5	92	25.5	1	2	315	0.00	29.873 
21:30	27.3	27.3	27.3	92	25.3	1	3	292	0.00	29.876 
21:35	27.2	27.2	27.2	92	25.2	2	3	292	0.00	29.876 
21:40	27.0	27.0	27.0	92	25.0	1	3	292	0.00	29.876 
21:45	27.0	27.0	27.0	92	25.0	1	4	270	0.00	29.888 
21:50	26.9	26.9	26.9	92	24.9	1	3	270	0.00	29.888 
21:55	26.9	26.9	26.9	93	25.2	1	4	270	0.00	29.888 
22:00	26.9	26.9	26.9	93	25.2	1	4	248	0.00	29.894 
22:05	26.9	26.9	26.9	93	25.2	1	3	248	0.00	29.894 
22:10	26.9	26.9	26.9	93	25.2	1	3	248	0.00	29.894 
22:15	26.7	26.7	26.7	93	25.0	1	3	248	0.00	29.891 
22:20	26.7	26.7	26.7	93	25.0	1	3	270	0.00	29.891 
22:25	26.7	26.7	26.7	93	25.0	1	3	270	0.00	29.891 
22:30	26.7	26.7	26.7	93	25.0	1	3	270	0.00	29.896 
22:35	26.7	26.7	26.7	93	25.0	1	3	270	0.00	29.896 
22:40	26.6	26.6	26.6	93	24.9	1	3	270	0.00	29.896 
22:45	26.6	26.6	26.6	93	24.9	1	2	270	0.00	29.894 
22:50	26.6	26.6	26.6	93	24.9	0	2	270	0.00	29.894 
22:55	26.6	26.6	26.6	93	24.9	1	2	270	0.00	29.894 
23:00	26.4	26.4	26.4	93	24.7	0	2	270	0.00	29.902 
23:05	26.3	26.3	26.3	93	24.6	0	2	270	0.00	29.902 
23:10	26.3	26.3	26.3	93	24.6	0	1	270	0.00	29.902 
23:15	26.1	26.1	26.1	93	24.4	0	1	270	0.00	29.900 
23:20	26.0	26.0	26.0	93	24.3	0	2	270	0.00	29.900 
23:25	26.0	26.0	26.0	93	24.3	0	2	270	0.00	29.900 
23:30	26.0	26.0	26.0	93	24.3	0	2	270	0.00	29.901 
23:35	26.0	26.0	26.0	93	24.3	0	1	270	0.00	29.901 
23:40	25.8	25.8	25.8	93	24.1	0	2	270	0.00	29.901 
23:45	25.8	25.8	25.8	93	24.1	0	2	270	0.00	29.902 
23:50	25.8	25.8	25.8	93	24.1	0	1	270	0.00	29.902 
23:55	25.8	25.8	25.8	93	24.1	1	2	270	0.00	29.902 

CoCoRaHS
IN-AL-39
A2 Web Hosting
Creative Commons License
GoDaddy
search engine by freefind advanced

loaded 2018-11-15 18:01:02 • last modified 2010-11-18 10:43:29
Privacy PolicyDisclaimer
• wx.awcolley.com is powered by PmWiki v.2002016 •
• all content (unless otherwise noted) © 2018 A W Colley